Time;durP1;ratioP1;P1;durP2;ratioP2;P2;SDS_P1;SDS_P2;PMS_P1;PMS_P2;Temp;Humidity;BMP_temperature;BMP_pressure;BME280_temperature;BME280_humidity;BME280_pressure;Samples;Min_cycle;Max_cycle;Signal;HPM_P1;HPM_P2
2021/12/25 00:00:24;;;;;;;4.25;1.42;;;-3.70;1.00;;;;;;5050037;28;20225;-79
2021/12/25 00:02:52;;;;;;;3.00;1.50;;;-3.70;1.00;;;;;;5044526;28;20277;-79
2021/12/25 00:05:20;;;;;;;3.20;1.60;;;-3.70;1.00;;;;;;5047780;28;20361;-80
2021/12/25 00:07:48;;;;;;;4.97;2.33;;;-3.70;1.00;;;;;;5040218;28;20225;-78
2021/12/25 00:10:15;;;;;;;4.63;2.15;;;-3.50;1.00;;;;;;5042103;28;20415;-80
2021/12/25 00:12:41;;;;;;;3.55;2.33;;;-3.20;1.00;;;;;;5038038;28;20244;-78
2021/12/25 00:15:08;;;;;;;3.75;1.88;;;-2.60;1.00;;;;;;5046787;28;20222;-79
2021/12/25 00:17:35;;;;;;;2.90;1.20;;;-2.50;1.00;;;;;;5039782;28;20302;-80
2021/12/25 00:20:02;;;;;;;4.85;1.92;;;-2.40;1.00;;;;;;5045827;28;21529;-80
2021/12/25 00:22:29;;;;;;;3.28;1.40;;;-2.20;1.00;;;;;;5042681;28;20222;-79
2021/12/25 00:24:56;;;;;;;6.45;3.10;;;-2.40;1.00;;;;;;5050784;28;21038;-79
2021/12/25 00:27:40;;;;;;;3.83;1.30;;;-2.40;1.00;;;;;;5042604;28;20226;-79
2021/12/25 00:30:15;;;;;;;1.90;0.80;;;-2.60;1.00;;;;;;5063065;28;20240;-79
2021/12/25 00:32:51;;;;;;;2.50;0.90;;;-2.90;1.00;;;;;;5048984;28;20271;-79
2021/12/25 00:35:18;;;;;;;2.40;1.15;;;-3.10;1.00;;;;;;5045070;28;20288;-80
2021/12/25 00:37:45;;;;;;;3.00;1.30;;;-3.30;1.00;;;;;;5045231;28;20232;-79
2021/12/25 00:40:14;;;;;;;2.00;1.00;;;-3.50;1.00;;;;;;5025817;28;20267;-77
2021/12/25 00:42:41;;;;;;;4.05;1.30;;;-3.60;1.00;;;;;;5057076;28;20238;-78
2021/12/25 00:45:08;;;;;;;2.03;1.10;;;-3.60;1.00;;;;;;5056196;28;20225;-79
2021/12/25 00:47:35;;;;;;;2.10;1.23;;;-3.70;1.00;;;;;;5054566;28;20273;-80
2021/12/25 00:50:02;;;;;;;3.58;1.17;;;-3.80;1.00;;;;;;5050614;28;20250;-78
2021/12/25 00:52:29;;;;;;;3.67;0.80;;;-3.90;1.00;;;;;;5049831;28;20241;-79
2021/12/25 00:54:55;;;;;;;3.40;1.10;;;-3.90;1.00;;;;;;5053958;28;20230;-79
2021/12/25 00:57:23;;;;;;;1.85;1.00;;;-4.00;1.00;;;;;;5060300;28;20229;-79
2021/12/25 00:59:50;;;;;;;1.95;0.82;;;-4.00;1.00;;;;;;5045325;28;20238;-78
2021/12/25 01:02:17;;;;;;;1.88;1.15;;;-4.00;1.00;;;;;;5066372;28;20205;-78
2021/12/25 01:04:43;;;;;;;1.65;1.00;;;-4.10;1.00;;;;;;5049910;28;20213;-78
2021/12/25 01:07:10;;;;;;;2.28;1.30;;;-4.10;1.00;;;;;;5054649;28;21067;-80
2021/12/25 01:09:37;;;;;;;1.67;0.80;;;-4.10;1.00;;;;;;5044630;28;20241;-80
2021/12/25 01:12:05;;;;;;;2.88;1.10;;;-4.10;1.00;;;;;;5043627;28;21542;-80
2021/12/25 01:14:38;;;;;;;2.80;1.15;;;-4.10;1.00;;;;;;5051681;28;20275;-79
2021/12/25 01:17:22;;;;;;;6.97;1.50;;;-4.10;1.00;;;;;;5039665;28;20363;-78
2021/12/25 01:31:06;;;;;;;1.70;1.20;;;-4.20;1.00;;;;;;5181244;27;20222;-79
2021/12/25 01:33:56;;;;;;;8.75;1.25;;;-4.20;1.00;;;;;;5164221;27;20860;-79
2021/12/25 01:36:35;;;;;;;2.10;1.15;;;-4.20;1.00;;;;;;5163199;27;20213;-80
2021/12/25 01:39:11;;;;;;;2.63;1.35;;;-4.20;1.00;;;;;;5159749;27;20218;-79
2021/12/25 01:49:51;;;;;;;2.97;1.40;;;-4.30;1.00;;;;;;5171477;27;20347;-78
2021/12/25 01:52:19;;;;;;;2.53;1.45;;;-4.30;1.00;;;;;;5186343;27;20210;-78
2021/12/25 01:54:47;;;;;;;2.30;0.90;;;-4.30;1.00;;;;;;5188642;27;20201;-78
2021/12/25 01:57:14;;;;;;;3.10;1.23;;;-4.30;1.00;;;;;;5187051;27;20241;-79
2021/12/25 01:59:40;;;;;;;2.00;1.30;;;-4.40;1.00;;;;;;5185527;27;20214;-77
2021/12/25 02:02:07;;;;;;;1.70;0.98;;;-4.40;1.00;;;;;;5180578;27;20222;-78
2021/12/25 02:04:34;;;;;;;3.33;1.00;;;-4.40;1.00;;;;;;5161146;27;20226;-80
2021/12/25 02:07:01;;;;;;;1.60;1.00;;;-4.40;1.00;;;;;;5160764;27;20210;-77
2021/12/25 02:09:28;;;;;;;1.70;1.17;;;-4.40;1.00;;;;;;5162271;27;20218;-79
2021/12/25 02:11:56;;;;;;;3.00;1.45;;;-4.40;1.00;;;;;;5162656;27;20268;-80
2021/12/25 02:14:23;;;;;;;1.77;1.13;;;-4.50;1.00;;;;;;5161982;27;20224;-81
2021/12/25 02:16:55;;;;;;;1.80;1.20;;;-4.50;1.00;;;;;;5157629;27;21300;-79
2021/12/25 02:19:33;;;;;;;3.00;1.17;;;-4.50;1.00;;;;;;5170535;27;20214;-78
2021/12/25 02:22:03;;;;;;;1.88;1.00;;;-4.50;1.00;;;;;;5173882;27;20252;-79
2021/12/25 02:24:30;;;;;;;2.38;1.55;;;-4.50;1.00;;;;;;5176479;27;20879;-79
2021/12/25 02:26:58;;;;;;;4.15;1.55;;;-4.60;1.00;;;;;;5159760;27;20214;-78
2021/12/25 02:29:25;;;;;;;1.95;1.13;;;-4.60;1.00;;;;;;5160833;27;20270;-78
2021/12/25 02:31:52;;;;;;;4.28;0.95;;;-4.60;1.00;;;;;;5159906;27;20226;-80
2021/12/25 02:34:19;;;;;;;2.53;1.33;;;-4.50;1.00;;;;;;5148003;27;20270;-79
2021/12/25 02:36:45;;;;;;;2.28;1.10;;;-4.60;1.00;;;;;;5146078;27;20224;-79
2021/12/25 02:39:14;;;;;;;3.30;1.63;;;-4.60;1.00;;;;;;5141841;27;21332;-79
2021/12/25 02:41:41;;;;;;;2.30;1.25;;;-4.60;1.00;;;;;;5138701;27;20238;-79
2021/12/25 02:44:07;;;;;;;2.33;1.10;;;-4.60;1.00;;;;;;5148597;27;20226;-80
2021/12/25 02:46:35;;;;;;;2.00;1.48;;;-4.60;1.00;;;;;;5151058;27;21021;-80
2021/12/25 02:49:01;;;;;;;2.70;1.45;;;-4.60;1.00;;;;;;5152537;27;20223;-79
2021/12/25 02:51:28;;;;;;;3.50;1.08;;;-4.60;1.00;;;;;;5142989;27;20217;-79
2021/12/25 02:53:56;;;;;;;2.88;1.10;;;-4.70;1.00;;;;;;5144506;27;20244;-78
2021/12/25 02:56:24;;;;;;;1.60;0.80;;;-4.70;1.00;;;;;;5142831;27;20248;-79
2021/12/25 02:58:50;;;;;;;2.08;1.20;;;-4.70;1.00;;;;;;5137443;27;22647;-79
2021/12/25 03:01:20;;;;;;;2.03;1.10;;;-4.70;1.00;;;;;;5142005;27;20234;-78
2021/12/25 03:03:47;;;;;;;2.10;1.30;;;-4.70;1.00;;;;;;5145556;27;20266;-80
2021/12/25 03:06:14;;;;;;;2.92;1.10;;;-4.70;1.00;;;;;;5143504;27;20223;-79
2021/12/25 03:08:42;;;;;;;3.35;1.50;;;-4.70;1.00;;;;;;5140963;27;20330;-79
2021/12/25 03:11:13;;;;;;;3.15;1.23;;;-4.70;1.00;;;;;;5141846;27;20219;-79
2021/12/25 03:13:45;;;;;;;2.63;1.35;;;-4.80;1.00;;;;;;5146002;27;20238;-77
2021/12/25 03:16:14;;;;;;;1.95;0.90;;;-4.70;1.00;;;;;;5149991;27;20263;-76
2021/12/25 03:18:46;;;;;;;2.00;1.17;;;-4.70;1.00;;;;;;5137129;27;20242;-79
2021/12/25 03:21:16;;;;;;;2.30;0.80;;;-4.70;1.00;;;;;;5130982;27;20242;-79
2021/12/25 03:23:45;;;;;;;2.00;1.30;;;-4.80;1.00;;;;;;5140501;27;20231;-78
2021/12/25 03:26:14;;;;;;;4.05;1.35;;;-4.70;1.00;;;;;;5144052;27;21037;-79
2021/12/25 03:28:44;;;;;;;2.58;1.15;;;-4.80;1.00;;;;;;5143498;27;20219;-79
2021/12/25 03:31:16;;;;;;;2.42;1.25;;;-4.80;1.00;;;;;;5145550;27;20275;-78
2021/12/25 03:33:45;;;;;;;4.38;1.33;;;-4.80;1.00;;;;;;5144208;27;20215;-79
2021/12/25 03:36:12;;;;;;;2.83;1.40;;;-4.80;1.00;;;;;;5158012;27;20981;-80
2021/12/25 03:38:40;;;;;;;2.85;1.38;;;-4.80;1.00;;;;;;5151766;27;20223;-80
2021/12/25 03:41:08;;;;;;;2.75;1.00;;;-4.80;1.00;;;;;;5156312;27;20213;-77
2021/12/25 03:43:38;;;;;;;2.58;1.20;;;-4.80;1.00;;;;;;5157111;27;20346;-77
2021/12/25 03:46:09;;;;;;;1.92;1.23;;;-4.80;1.00;;;;;;5150557;27;20221;-78
2021/12/25 03:59:35;;;;;;;2.13;1.63;;;-4.90;1.00;;;;;;5147166;27;20214;-78
2021/12/25 04:02:09;;;;;;;2.58;1.60;;;-4.90;1.00;;;;;;5147230;27;20247;-77
2021/12/25 04:04:38;;;;;;;2.22;1.25;;;-4.90;1.00;;;;;;5150465;27;20344;-79
2021/12/25 04:07:10;;;;;;;2.97;1.50;;;-4.90;1.00;;;;;;5152706;27;20250;-79
2021/12/25 04:09:39;;;;;;;4.85;1.98;;;-4.90;1.00;;;;;;5147161;27;20225;-78
2021/12/25 04:12:08;;;;;;;2.72;1.48;;;-4.90;1.00;;;;;;5148249;27;20279;-79
2021/12/25 04:14:35;;;;;;;2.25;1.30;;;-4.90;1.00;;;;;;5146907;27;20238;-78
2021/12/25 04:17:03;;;;;;;2.80;1.40;;;-4.90;1.00;;;;;;5142908;27;20316;-78
2021/12/25 04:19:30;;;;;;;1.90;1.20;;;-4.90;1.00;;;;;;5147661;27;21531;-78
2021/12/25 04:21:58;;;;;;;1.90;1.27;;;-4.90;1.00;;;;;;5146308;27;20248;-77
2021/12/25 04:24:27;;;;;;;3.47;1.70;;;-4.90;1.00;;;;;;5150075;27;20230;-77
2021/12/25 04:26:54;;;;;;;1.92;1.45;;;-4.90;1.00;;;;;;5148752;27;20241;-78
2021/12/25 04:29:36;;;;;;;3.72;1.60;;;-5.00;1.00;;;;;;5145230;27;20225;-79
2021/12/25 04:32:34;;;;;;;2.15;1.25;;;-5.00;1.00;;;;;;5144380;27;20232;-79
2021/12/25 05:02:37;;;;;;;2.58;1.60;;;-5.00;1.00;;;;;;5142139;27;20226;-78
2021/12/25 05:05:11;;;;;;;3.00;1.42;;;-5.00;1.00;;;;;;5145675;27;20230;-80
2021/12/25 05:07:38;;;;;;;3.55;1.98;;;-5.10;1.00;;;;;;5144325;27;20422;-79
2021/12/25 05:10:05;;;;;;;13.90;4.32;;;-5.10;1.00;;;;;;5140213;27;20297;-79
2021/12/25 05:12:32;;;;;;;5.50;1.90;;;-5.00;1.00;;;;;;5139547;27;20233;-78
2021/12/25 05:14:59;;;;;;;3.05;1.63;;;-5.00;1.00;;;;;;5137256;27;20223;-78
2021/12/25 05:17:26;;;;;;;5.75;1.60;;;-5.00;1.00;;;;;;5141619;27;20229;-79
2021/12/25 05:19:53;;;;;;;5.18;1.90;;;-5.10;1.00;;;;;;5141984;27;21373;-79
2021/12/25 05:22:21;;;;;;;2.65;1.30;;;-5.00;1.00;;;;;;5146298;27;20294;-80
2021/12/25 05:24:48;;;;;;;2.65;1.60;;;-5.00;1.00;;;;;;5145617;27;20771;-80
2021/12/25 05:27:15;;;;;;;2.08;1.10;;;-5.10;1.00;;;;;;5140801;27;20233;-81
2021/12/25 05:29:46;;;;;;;3.83;1.70;;;-5.10;1.00;;;;;;5144844;27;20258;-80
2021/12/25 05:32:12;;;;;;;3.78;1.75;;;-5.00;1.00;;;;;;5152374;27;20252;-80
2021/12/25 05:34:39;;;;;;;2.63;1.40;;;-5.10;1.00;;;;;;5160676;27;20273;-78
2021/12/25 05:37:05;;;;;;;2.22;1.42;;;-5.10;1.00;;;;;;5144545;27;20226;-78
2021/12/25 05:39:34;;;;;;;3.58;1.85;;;-5.10;1.00;;;;;;5146637;27;20757;-78
2021/12/25 05:42:00;;;;;;;4.90;1.70;;;-5.10;1.00;;;;;;5169300;27;20234;-77
2021/12/25 05:44:27;;;;;;;2.90;1.33;;;-5.20;1.00;;;;;;5166285;27;20216;-77
2021/12/25 05:46:54;;;;;;;2.92;1.73;;;-5.10;1.00;;;;;;5168638;27;20218;-79
2021/12/25 05:49:21;;;;;;;3.83;1.58;;;-5.10;1.00;;;;;;5167296;27;20291;-79
2021/12/25 05:51:48;;;;;;;3.35;2.15;;;-5.10;1.00;;;;;;5163874;27;20215;-77
2021/12/25 05:54:14;;;;;;;2.83;1.92;;;-5.20;1.00;;;;;;5168334;27;20230;-78
2021/12/25 05:56:42;;;;;;;3.17;2.10;;;-5.20;1.00;;;;;;5160197;27;20226;-77
2021/12/25 05:59:09;;;;;;;2.55;1.25;;;-5.20;1.00;;;;;;5160498;27;20291;-77
2021/12/25 06:01:36;;;;;;;3.10;1.73;;;-5.20;1.00;;;;;;5147974;27;20229;-78
2021/12/25 06:04:02;;;;;;;3.80;1.20;;;-5.20;1.00;;;;;;5158877;27;20257;-77
2021/12/25 06:06:29;;;;;;;3.47;1.45;;;-5.20;1.00;;;;;;5145654;27;20225;-80
2021/12/25 06:08:55;;;;;;;1.70;1.20;;;-5.30;1.00;;;;;;5144826;27;20261;-80
2021/12/25 06:11:24;;;;;;;4.25;1.45;;;-5.30;1.00;;;;;;5143148;27;20271;-80
2021/12/25 06:13:59;;;;;;;4.78;1.90;;;-5.30;1.00;;;;;;5136816;27;20281;-80
2021/12/25 06:16:26;;;;;;;9.98;1.88;;;-5.30;1.00;;;;;;5147409;27;20221;-79
2021/12/25 06:18:53;;;;;;;6.45;2.17;;;-5.30;1.00;;;;;;5150467;27;20306;-79
2021/12/25 06:21:19;;;;;;;5.07;3.47;;;-5.30;1.00;;;;;;5150525;27;20928;-80
2021/12/25 06:23:46;;;;;;;6.20;3.03;;;-5.30;1.00;;;;;;5156143;27;20302;-79
2021/12/25 06:26:13;;;;;;;2.70;1.40;;;-5.30;1.00;;;;;;5152105;27;20219;-80
2021/12/25 06:28:40;;;;;;;3.03;1.88;;;-5.30;1.00;;;;;;5150397;27;20265;-80
2021/12/25 06:31:08;;;;;;;4.22;2.47;;;-5.30;1.00;;;;;;5154160;27;20222;-78
2021/12/25 06:33:34;;;;;;;4.40;2.40;;;-5.30;1.00;;;;;;5155185;27;20218;-79
2021/12/25 06:36:01;;;;;;;2.72;2.28;;;-5.30;1.00;;;;;;5158056;27;20264;-78
2021/12/25 06:38:28;;;;;;;3.13;2.30;;;-5.20;1.00;;;;;;5167342;27;20495;-79
2021/12/25 06:40:54;;;;;;;3.40;2.40;;;-5.20;1.00;;;;;;5157264;27;20214;-79
2021/12/25 06:43:21;;;;;;;4.53;2.58;;;-5.20;1.00;;;;;;5153244;27;20320;-79
2021/12/25 06:45:48;;;;;;;3.08;2.30;;;-5.30;1.00;;;;;;5156951;27;20305;-79
2021/12/25 06:48:16;;;;;;;2.65;2.05;;;-5.30;1.00;;;;;;5149344;27;20226;-78
2021/12/25 06:50:43;;;;;;;2.53;1.85;;;-5.30;1.00;;;;;;5156658;27;20250;-79
2021/12/25 06:53:10;;;;;;;3.50;1.85;;;-5.30;1.00;;;;;;5153151;27;20687;-78
2021/12/25 06:55:36;;;;;;;2.38;1.50;;;-5.20;1.00;;;;;;5152035;27;20229;-79
2021/12/25 06:58:04;;;;;;;4.63;1.80;;;-5.30;1.00;;;;;;5158027;27;20218;-79
2021/12/25 07:00:31;;;;;;;3.95;1.60;;;-5.30;1.00;;;;;;5153760;27;20218;-79
2021/12/25 07:02:58;;;;;;;3.65;2.00;;;-5.30;1.00;;;;;;5148526;27;20240;-78
2021/12/25 07:05:26;;;;;;;4.15;1.67;;;-5.30;1.00;;;;;;5156490;27;20223;-77
2021/12/25 07:07:53;;;;;;;2.78;1.55;;;-5.30;1.00;;;;;;5153946;27;20222;-79
2021/12/25 07:10:21;;;;;;;4.90;1.80;;;-5.30;1.00;;;;;;5158989;27;20225;-78
2021/12/25 07:12:49;;;;;;;2.63;1.45;;;-5.30;1.00;;;;;;5149708;27;20256;-78
2021/12/25 07:15:16;;;;;;;2.55;1.80;;;-5.30;1.00;;;;;;5153933;27;20294;-78
2021/12/25 07:17:44;;;;;;;2.90;1.75;;;-5.30;1.00;;;;;;5150847;27;20211;-78
2021/12/25 07:20:11;;;;;;;2.53;1.55;;;-5.30;1.00;;;;;;5149857;27;20235;-80
2021/12/25 07:22:40;;;;;;;3.42;1.60;;;-5.30;1.00;;;;;;5146516;27;20990;-80
2021/12/25 07:25:08;;;;;;;4.03;2.38;;;-5.30;1.00;;;;;;5138349;27;20235;-80
2021/12/25 07:27:35;;;;;;;2.60;1.30;;;-5.40;1.00;;;;;;5137802;27;20250;-80
2021/12/25 07:30:03;;;;;;;4.18;2.03;;;-5.40;1.00;;;;;;5133058;27;20237;-79
2021/12/25 07:32:30;;;;;;;1.90;1.48;;;-5.40;1.00;;;;;;5157968;27;20327;-80
2021/12/25 07:34:57;;;;;;;4.60;2.65;;;-5.40;1.00;;;;;;5142651;27;20223;-82
2021/12/25 07:37:24;;;;;;;2.97;1.70;;;-5.40;1.00;;;;;;5151444;27;20218;-79
2021/12/25 07:39:52;;;;;;;3.40;2.22;;;-5.40;1.00;;;;;;5143325;27;20301;-79
2021/12/25 07:42:19;;;;;;;4.85;2.30;;;-5.40;1.00;;;;;;5141965;27;20291;-80
2021/12/25 07:44:46;;;;;;;4.05;2.40;;;-5.30;1.00;;;;;;5142832;27;20218;-80
2021/12/25 07:47:14;;;;;;;30.08;17.58;;;-5.30;1.00;;;;;;5136374;27;20622;-80
2021/12/25 07:49:41;;;;;;;5.15;3.70;;;-5.20;1.00;;;;;;5141283;27;20620;-78
2021/12/25 07:52:08;;;;;;;3.65;2.47;;;-5.20;1.00;;;;;;5147083;27;20780;-78
2021/12/25 07:54:35;;;;;;;4.97;1.90;;;-5.20;1.00;;;;;;5151675;27;20306;-78
2021/12/25 07:57:03;;;;;;;4.75;2.50;;;-5.10;1.00;;;;;;5145838;27;20222;-80
2021/12/25 07:59:29;;;;;;;2.83;2.30;;;-5.10;1.00;;;;;;5142903;27;21119;-78
2021/12/25 08:01:56;;;;;;;4.68;3.15;;;-5.00;1.00;;;;;;5139509;27;20308;-79
2021/12/25 08:04:23;;;;;;;3.53;2.10;;;-5.00;1.00;;;;;;5143840;27;20631;-80
2021/12/25 08:06:50;;;;;;;5.80;2.55;;;-5.00;1.00;;;;;;5142894;27;20713;-79
2021/12/25 08:09:27;;;;;;;3.95;2.80;;;-4.90;1.00;;;;;;5146230;27;20287;-80
2021/12/25 08:11:54;;;;;;;4.57;3.00;;;-4.90;1.00;;;;;;5136190;27;20217;-80
2021/12/25 08:14:25;;;;;;;3.85;3.10;;;-4.80;1.00;;;;;;5148058;27;20218;-80
2021/12/25 08:16:51;;;;;;;18.02;9.77;;;-4.80;1.00;;;;;;5138681;27;20245;-79
2021/12/25 08:19:18;;;;;;;7.43;2.65;;;-4.60;1.00;;;;;;5143132;27;20215;-80
2021/12/25 08:21:44;;;;;;;5.40;3.00;;;-4.10;1.00;;;;;;5139430;27;20207;-82
2021/12/25 08:24:11;;;;;;;3.17;1.90;;;-3.40;1.00;;;;;;5139480;27;20233;-81
2021/12/25 08:26:39;;;;;;;4.40;2.78;;;-2.70;1.00;;;;;;5141825;27;20221;-81
2021/12/25 08:29:06;;;;;;;7.78;2.97;;;-2.20;1.00;;;;;;5142715;27;20220;-79
2021/12/25 08:31:34;;;;;;;4.38;4.00;;;-1.70;1.00;;;;;;5147370;27;20352;-81
2021/12/25 08:34:01;;;;;;;5.20;4.10;;;-1.50;1.00;;;;;;5142686;27;21526;-79
2021/12/25 08:36:29;;;;;;;3.10;2.53;;;-1.50;1.00;;;;;;5140024;27;21548;-81
2021/12/25 08:38:55;;;;;;;3.33;2.47;;;-1.60;1.00;;;;;;5141370;27;20227;-80
2021/12/25 08:41:26;;;;;;;4.95;3.67;;;-1.80;1.00;;;;;;5137577;27;21273;-80
2021/12/25 08:43:57;;;;;;;4.50;2.33;;;-2.00;1.00;;;;;;5153562;27;20227;-80
2021/12/25 08:46:42;;;;;;;4.68;2.53;;;-2.20;1.00;;;;;;5155638;27;20293;-79
2021/12/25 08:49:14;;;;;;;8.35;5.55;;;-2.40;1.00;;;;;;5165469;27;20210;-80
2021/12/25 08:51:41;;;;;;;6.43;4.93;;;-2.60;1.00;;;;;;5156658;27;20222;-80
2021/12/25 08:54:07;;;;;;;4.55;2.83;;;-2.60;1.00;;;;;;5147832;27;20209;-81
2021/12/25 08:56:34;;;;;;;5.00;2.70;;;-2.70;1.00;;;;;;5145446;27;20218;-78
2021/12/25 08:59:01;;;;;;;6.88;6.28;;;-2.60;1.00;;;;;;5144410;27;20228;-78
2021/12/25 09:01:28;;;;;;;6.72;2.35;;;-2.70;1.00;;;;;;5140081;27;20256;-80
2021/12/25 09:03:56;;;;;;;3.30;1.63;;;-2.60;1.00;;;;;;5140827;27;20268;-79
2021/12/25 09:06:26;;;;;;;4.90;3.42;;;-2.60;1.00;;;;;;5140417;27;20218;-80
2021/12/25 09:08:52;;;;;;;4.30;2.00;;;-2.60;1.00;;;;;;5148100;27;20222;-79
2021/12/25 09:11:21;;;;;;;3.38;2.47;;;-2.50;1.00;;;;;;5141663;27;20224;-79
2021/12/25 09:13:48;;;;;;;16.15;6.47;;;-2.30;1.00;;;;;;5150470;27;20337;-81
2021/12/25 09:16:15;;;;;;;4.65;3.38;;;-2.20;1.00;;;;;;5154092;27;20218;-78
2021/12/25 09:18:42;;;;;;;3.80;2.65;;;-2.20;1.00;;;;;;5147818;27;20250;-79
2021/12/25 09:21:09;;;;;;;3.78;2.65;;;-2.10;1.00;;;;;;5142158;27;20213;-80
2021/12/25 09:23:38;;;;;;;4.30;2.60;;;-2.10;1.00;;;;;;5144965;27;20229;-79
2021/12/25 09:26:06;;;;;;;4.22;2.80;;;-2.00;1.00;;;;;;5138137;27;20226;-80
2021/12/25 09:28:32;;;;;;;4.05;3.30;;;-1.90;1.00;;;;;;5143642;27;20305;-80
2021/12/25 09:30:59;;;;;;;7.40;5.68;;;-2.00;1.00;;;;;;5139642;27;20202;-78
2021/12/25 09:33:26;;;;;;;6.03;3.67;;;-2.10;1.00;;;;;;5139506;27;20226;-84
2021/12/25 09:35:56;;;;;;;9.25;3.53;;;-2.20;1.00;;;;;;5152476;27;20369;-81
2021/12/25 09:38:23;;;;;;;4.72;3.03;;;-2.20;1.00;;;;;;5149251;27;20825;-83
2021/12/25 09:40:52;;;;;;;5.63;3.97;;;-1.80;1.00;;;;;;5153181;27;20277;-84
2021/12/25 09:43:19;;;;;;;7.43;3.75;;;-1.50;1.00;;;;;;5170074;27;20229;-86
2021/12/25 09:45:47;;;;;;;6.72;3.92;;;-1.30;1.00;;;;;;5152140;27;20241;-85
2021/12/25 09:48:14;;;;;;;6.07;4.78;;;-1.00;1.00;;;;;;5150666;27;20214;-82
2021/12/25 09:50:41;;;;;;;4.88;2.83;;;-0.80;1.00;;;;;;5147847;27;20226;-85
2021/12/25 09:53:09;;;;;;;7.25;4.28;;;-1.00;1.00;;;;;;5146412;27;20233;-84
2021/12/25 09:55:38;;;;;;;4.85;3.00;;;-1.10;1.00;;;;;;5162467;27;20221;-85
2021/12/25 09:58:07;;;;;;;5.30;2.70;;;-0.60;1.00;;;;;;5151602;27;20222;-83
2021/12/25 10:00:36;;;;;;;5.82;3.05;;;0.40;1.00;;;;;;5150525;27;20242;-84
2021/12/25 10:03:04;;;;;;;6.20;2.65;;;1.00;1.00;;;;;;5151861;27;20226;-84
2021/12/25 10:05:35;;;;;;;6.47;2.08;;;1.50;1.00;;;;;;5150026;27;20647;-86
2021/12/25 10:08:04;;;;;;;4.90;2.72;;;2.10;1.00;;;;;;5154300;27;20225;-84
2021/12/25 10:10:41;;;;;;;5.38;3.45;;;2.50;1.00;;;;;;5162386;27;20955;-83
2021/12/25 10:13:24;;;;;;;5.45;4.10;;;2.90;1.00;;;;;;5164305;27;20222;-85
2021/12/25 10:15:53;;;;;;;6.60;3.03;;;2.20;1.00;;;;;;5148755;27;20219;-84
2021/12/25 10:18:27;;;;;;;7.35;3.75;;;1.90;1.00;;;;;;5158690;27;20252;-88
2021/12/25 10:20:54;;;;;;;6.90;3.85;;;2.00;1.00;;;;;;5163365;27;20228;-83
2021/12/25 10:23:29;;;;;;;5.47;3.50;;;2.70;1.00;;;;;;5156147;27;20306;-85
2021/12/25 10:26:23;;;;;;;5.30;3.55;;;3.40;1.00;;;;;;5148926;27;20282;-85
2021/12/25 10:28:55;;;;;;;6.07;3.05;;;3.70;1.00;;;;;;5160708;27;21096;-85
2021/12/25 10:31:31;;;;;;;4.45;2.95;;;3.80;1.00;;;;;;5162802;27;20218;-81
2021/12/25 10:33:58;;;;;;;4.80;3.45;;;3.50;1.00;;;;;;5162330;27;20221;-83
2021/12/25 10:36:27;;;;;;;4.70;3.58;;;3.00;1.00;;;;;;5168075;27;20278;-84
2021/12/25 10:39:02;;;;;;;5.82;3.15;;;3.60;1.00;;;;;;5158173;27;20226;-84
2021/12/25 10:41:29;;;;;;;6.88;3.67;;;4.00;1.00;;;;;;5149437;27;20222;-85
2021/12/25 10:44:17;;;;;;;4.40;2.83;;;3.80;1.00;;;;;;5153596;27;20234;-84
2021/12/25 10:46:48;;;;;;;5.25;2.55;;;4.10;1.00;;;;;;5149590;27;20229;-84
2021/12/25 10:49:16;;;;;;;5.88;3.97;;;4.40;1.00;;;;;;5154417;27;21161;-83
2021/12/25 10:51:43;;;;;;;4.20;3.17;;;4.90;1.00;;;;;;5147762;27;20211;-84
2021/12/25 10:54:12;;;;;;;3.85;3.22;;;4.90;1.00;;;;;;5162985;27;20214;-86
2021/12/25 10:56:41;;;;;;;5.05;3.38;;;4.90;1.00;;;;;;5187311;27;20233;-84
2021/12/25 10:59:11;;;;;;;73.22;50.97;;;5.20;1.00;;;;;;5173527;27;20346;-87
2021/12/25 11:01:42;;;;;;;3.28;2.97;;;4.90;1.00;;;;;;5183385;27;20275;-87
2021/12/25 11:04:31;;;;;;;4.47;3.30;;;4.10;1.00;;;;;;5171054;27;20548;-87
2021/12/25 11:06:59;;;;;;;3.58;2.70;;;3.50;1.00;;;;;;5166414;27;21047;-85
2021/12/25 11:09:26;;;;;;;5.68;3.30;;;3.40;1.00;;;;;;5157515;27;20225;-82
2021/12/25 11:12:15;;;;;;;4.72;3.25;;;3.70;1.00;;;;;;5145874;27;20299;-84
2021/12/25 11:14:42;;;;;;;5.68;3.75;;;4.10;1.00;;;;;;5146226;27;20222;-84
2021/12/25 11:17:23;;;;;;;5.22;3.75;;;4.70;1.00;;;;;;5157810;27;20229;-83
2021/12/25 11:19:57;;;;;;;5.63;2.90;;;5.10;1.00;;;;;;5159619;27;20221;-83
2021/12/25 11:22:26;;;;;;;10.68;4.00;;;5.20;1.00;;;;;;5143601;27;20661;-84
2021/12/25 11:24:54;;;;;;;6.00;3.13;;;5.20;1.00;;;;;;5141555;27;20323;-83
2021/12/25 11:27:22;;;;;;;4.40;3.55;;;5.00;1.00;;;;;;5143475;27;20226;-84
2021/12/25 11:29:50;;;;;;;5.93;3.40;;;5.00;1.00;;;;;;5142811;27;20569;-87
2021/12/25 11:32:21;;;;;;;6.78;4.43;;;5.20;1.00;;;;;;5155130;27;20247;-84
2021/12/25 11:34:50;;;;;;;3.88;2.90;;;5.30;1.00;;;;;;5160362;27;20232;-81
2021/12/25 11:37:19;;;;;;;6.85;2.80;;;5.00;1.00;;;;;;5147367;27;20223;-83
2021/12/25 11:39:52;;;;;;;3.60;2.53;;;4.60;1.00;;;;;;5153374;27;20237;-86
2021/12/25 11:42:21;;;;;;;5.30;3.50;;;4.80;1.00;;;;;;5161863;27;21051;-85
2021/12/25 11:44:52;;;;;;;4.50;3.30;;;5.00;1.00;;;;;;5145692;27;20285;-84
2021/12/25 11:47:37;;;;;;;3.35;2.53;;;5.60;1.00;;;;;;5144110;27;20230;-87
2021/12/25 11:50:08;;;;;;;2.60;2.10;;;6.40;1.00;;;;;;5143275;27;21085;-86
2021/12/25 11:52:41;;;;;;;2.10;1.90;;;6.40;1.00;;;;;;5145297;27;20291;-84
2021/12/25 11:55:32;;;;;;;3.10;2.15;;;6.60;1.00;;;;;;5143357;27;20331;-84
2021/12/25 11:58:15;;;;;;;3.05;2.35;;;6.70;1.00;;;;;;5145818;27;20229;-83
2021/12/25 12:00:44;;;;;;;3.78;2.17;;;7.20;1.00;;;;;;5149118;27;20302;-84
2021/12/25 12:03:36;;;;;;;4.70;2.70;;;7.50;1.00;;;;;;5151373;27;20237;-80
2021/12/25 12:06:03;;;;;;;6.93;2.75;;;7.50;1.00;;;;;;5150369;27;20210;-81
2021/12/25 12:08:30;;;;;;;4.25;3.20;;;8.20;1.00;;;;;;5144537;27;20218;-80
2021/12/25 12:11:00;;;;;;;5.85;3.38;;;8.60;1.00;;;;;;5144235;27;20229;-83
2021/12/25 12:13:29;;;;;;;4.28;2.85;;;8.20;1.00;;;;;;5145132;27;20222;-80
2021/12/25 12:15:58;;;;;;;4.32;2.95;;;8.30;1.00;;;;;;5141233;27;20231;-81
2021/12/25 12:18:39;;;;;;;3.90;3.05;;;8.70;1.00;;;;;;5136389;27;20233;-81
2021/12/25 12:21:33;;;;;;;4.30;2.40;;;8.90;1.00;;;;;;5142080;27;20344;-82
2021/12/25 12:24:38;;;;;;;3.78;2.72;;;8.90;1.00;;;;;;5150867;27;20582;-79
2021/12/25 12:27:06;;;;;;;4.75;2.50;;;9.20;1.00;;;;;;5152698;27;20230;-83
2021/12/25 12:29:45;;;;;;;6.28;2.55;;;9.10;1.00;;;;;;5137401;27;20944;-83
2021/12/25 12:32:43;;;;;;;2.70;2.20;;;9.20;1.00;;;;;;5146060;27;20214;-83
2021/12/25 12:35:30;;;;;;;5.30;2.30;;;9.40;1.00;;;;;;5137570;27;21079;-79
2021/12/25 12:38:24;;;;;;;8.33;3.20;;;10.20;1.00;;;;;;5135874;27;21046;-82
2021/12/25 12:41:14;;;;;;;3.10;1.90;;;11.40;1.00;;;;;;5136085;27;20405;-81
2021/12/25 12:44:05;;;;;;;4.43;3.03;;;12.30;1.00;;;;;;5142630;27;20566;-79
2021/12/25 12:46:55;;;;;;;5.07;2.80;;;12.80;1.00;;;;;;5145859;27;20428;-79
2021/12/25 12:49:24;;;;;;;6.97;4.17;;;13.20;1.00;;;;;;5152291;27;20504;-81
2021/12/25 12:52:14;;;;;;;8.00;4.23;;;13.70;1.00;;;;;;5162207;27;20400;-81
2021/12/25 12:54:42;;;;;;;3.80;2.30;;;13.80;1.00;;;;;;5137907;27;20937;-83
2021/12/25 12:57:11;;;;;;;3.67;3.00;;;13.60;1.00;;;;;;5141198;27;20480;-82
2021/12/25 12:59:45;;;;;;;3.67;2.60;;;13.40;1.00;;;;;;5142891;27;20449;-83
2021/12/25 13:02:12;;;;;;;3.20;2.43;;;12.40;1.00;;;;;;5144664;27;20438;-83
2021/12/25 13:04:43;;;;;;;4.13;2.60;;;11.50;1.00;;;;;;5142613;27;21032;-82
2021/12/25 13:07:13;;;;;;;4.70;4.10;;;11.40;1.00;;;;;;5146512;27;20577;-84
2021/12/25 13:09:45;;;;;;;6.33;4.20;;;11.90;1.00;;;;;;5143281;27;20575;-83
2021/12/25 13:12:26;;;;;;;4.27;3.70;;;13.10;1.00;;;;;;5147395;27;20546;-80
2021/12/25 13:15:05;;;;;;;4.30;3.20;;;13.20;1.00;;;;;;5144484;27;20991;-80
2021/12/25 13:17:32;;;;;;;4.70;2.90;;;10.70;1.00;;;;;;5141973;27;20971;-83
2021/12/25 13:19:59;;;;;;;6.38;3.05;;;8.50;1.00;;;;;;5162809;27;20249;-81
2021/12/25 13:22:28;;;;;;;5.40;4.20;;;6.60;1.00;;;;;;5160374;27;20238;-81
2021/12/25 13:25:08;;;;;;;5.32;3.90;;;5.30;1.00;;;;;;5142784;27;20248;-82
2021/12/25 13:27:35;;;;;;;3.45;2.92;;;4.20;1.00;;;;;;5144479;27;20850;-83
2021/12/25 13:30:10;;;;;;;3.97;3.40;;;3.40;1.00;;;;;;5143675;27;20333;-82
2021/12/25 13:32:37;;;;;;;7.03;2.83;;;2.80;1.00;;;;;;5139070;27;20217;-83
2021/12/25 13:35:04;;;;;;;4.25;2.78;;;2.40;1.00;;;;;;5144058;27;20728;-83
2021/12/25 13:37:32;;;;;;;5.78;3.40;;;2.00;1.00;;;;;;5140949;27;20245;-81
2021/12/25 13:39:59;;;;;;;5.30;3.60;;;1.70;1.00;;;;;;5151528;27;20233;-80
2021/12/25 13:42:26;;;;;;;4.90;4.00;;;1.40;1.00;;;;;;5154394;27;20235;-84
2021/12/25 13:44:53;;;;;;;5.95;4.70;;;1.20;1.00;;;;;;5143901;27;20318;-83
2021/12/25 13:47:23;;;;;;;6.93;5.07;;;1.10;1.00;;;;;;5149973;27;20295;-83
2021/12/25 13:49:52;;;;;;;6.13;4.57;;;0.90;1.00;;;;;;5140174;27;20238;-82
2021/12/25 13:52:34;;;;;;;4.70;3.60;;;0.80;1.00;;;;;;5157494;27;20231;-84
2021/12/25 13:55:10;;;;;;;4.43;3.10;;;0.60;1.00;;;;;;5156910;27;20268;-83
2021/12/25 13:57:41;;;;;;;4.22;3.20;;;0.50;1.00;;;;;;5144927;27;20222;-84
2021/12/25 14:00:12;;;;;;;4.85;3.65;;;0.50;1.00;;;;;;5139924;27;20222;-83
2021/12/25 14:02:41;;;;;;;5.50;3.53;;;0.40;1.00;;;;;;5145713;27;20263;-82
2021/12/25 14:05:10;;;;;;;12.43;8.23;;;0.30;1.00;;;;;;5145911;27;20222;-81
2021/12/25 14:07:39;;;;;;;7.20;6.05;;;0.20;1.00;;;;;;5142134;27;20226;-80
2021/12/25 14:10:16;;;;;;;7.15;4.20;;;0.10;1.00;;;;;;5139176;27;20223;-81
2021/12/25 14:12:46;;;;;;;6.05;4.57;;;0.00;1.00;;;;;;5140490;27;20240;-82